Time;durP1;ratioP1;P1;durP2;ratioP2;P2;SDS_P1;SDS_P2;PMS_P1;PMS_P2;Temp;Humidity;BMP_temperature;BMP_pressure;BME280_temperature;BME280_humidity;BME280_pressure;Samples;Min_cycle;Max_cycle;Signal;HPM_P1;HPM_P2
2024/01/27 00:00:15;;;;;;;6.53;3.50;;;3.40;99.90;;;;;;5003320;28;20227;-54
2024/01/27 00:02:44;;;;;;;7.30;3.67;;;3.40;99.90;;;;;;5002142;28;20573;-54
2024/01/27 00:05:11;;;;;;;7.07;3.63;;;3.40;99.90;;;;;;5003922;28;20518;-54
2024/01/27 00:07:37;;;;;;;5.47;3.27;;;3.30;99.90;;;;;;5005750;28;20270;-54
2024/01/27 00:10:05;;;;;;;6.00;3.40;;;3.40;99.90;;;;;;5004394;28;20223;-54
2024/01/27 00:12:32;;;;;;;6.63;2.93;;;3.30;99.90;;;;;;5001963;28;20662;-55
2024/01/27 00:14:58;;;;;;;6.53;3.33;;;3.30;99.90;;;;;;5001835;28;20620;-54
2024/01/27 00:17:27;;;;;;;7.97;3.67;;;3.30;99.90;;;;;;5001509;28;20207;-54
2024/01/27 00:19:55;;;;;;;10.70;4.70;;;3.20;99.90;;;;;;5000740;28;20223;-54
2024/01/27 00:22:22;;;;;;;6.23;3.53;;;3.20;99.90;;;;;;5004759;28;20207;-54
2024/01/27 00:24:49;;;;;;;5.17;3.53;;;3.10;99.90;;;;;;5004647;28;20207;-54
2024/01/27 00:27:16;;;;;;;6.03;3.20;;;3.10;99.90;;;;;;5002482;28;20203;-55
2024/01/27 00:29:42;;;;;;;4.33;2.80;;;3.00;99.90;;;;;;5001161;28;20281;-55
2024/01/27 00:32:09;;;;;;;3.90;3.20;;;3.00;99.90;;;;;;5002677;28;20203;-55
2024/01/27 00:34:36;;;;;;;4.10;3.00;;;2.90;99.90;;;;;;5004622;28;20206;-55
2024/01/27 00:37:04;;;;;;;8.57;3.43;;;2.90;99.90;;;;;;5004014;28;20211;-54
2024/01/27 00:39:32;;;;;;;8.13;3.87;;;2.90;99.90;;;;;;5001133;28;20282;-55
2024/01/27 00:41:59;;;;;;;6.77;3.80;;;3.00;99.90;;;;;;5001641;28;20262;-55
2024/01/27 00:44:26;;;;;;;5.70;3.53;;;3.00;99.90;;;;;;4993243;28;20491;-54
2024/01/27 00:46:53;;;;;;;4.87;3.47;;;3.00;99.90;;;;;;5001095;28;20211;-54
2024/01/27 00:49:20;;;;;;;9.20;4.30;;;2.90;99.90;;;;;;5003539;28;20736;-55
2024/01/27 00:51:46;;;;;;;7.53;3.67;;;3.00;99.90;;;;;;5004460;28;20210;-56
2024/01/27 00:54:14;;;;;;;4.97;3.40;;;2.90;99.90;;;;;;5002446;28;20634;-54
2024/01/27 00:56:41;;;;;;;7.30;3.10;;;2.90;99.90;;;;;;5000946;28;20215;-54
2024/01/27 00:59:08;;;;;;;5.87;3.80;;;2.90;99.90;;;;;;5001667;28;20582;-55
2024/01/27 01:01:35;;;;;;;6.73;3.60;;;2.90;99.90;;;;;;5004527;28;20230;-55
2024/01/27 01:04:01;;;;;;;5.33;3.43;;;2.90;99.90;;;;;;5003999;28;20215;-55
2024/01/27 01:06:28;;;;;;;8.13;3.60;;;2.90;99.90;;;;;;5000603;28;20204;-54
2024/01/27 01:08:54;;;;;;;5.90;3.57;;;2.90;99.90;;;;;;5000870;28;20208;-55
2024/01/27 01:11:22;;;;;;;5.80;3.47;;;2.90;99.90;;;;;;5003481;28;20207;-54
2024/01/27 01:13:49;;;;;;;5.87;3.20;;;2.80;99.90;;;;;;4997743;28;20207;-54
2024/01/27 01:16:16;;;;;;;4.37;3.33;;;2.80;99.90;;;;;;5002300;28;20215;-54
2024/01/27 01:18:42;;;;;;;6.17;3.37;;;2.70;99.90;;;;;;5004118;28;20602;-55
2024/01/27 01:21:09;;;;;;;7.07;3.50;;;2.80;99.90;;;;;;5002776;28;20626;-54
2024/01/27 01:23:36;;;;;;;4.53;3.37;;;2.70;99.90;;;;;;5000610;28;20214;-55
2024/01/27 01:26:02;;;;;;;7.30;3.30;;;2.70;99.90;;;;;;5000637;28;20613;-54
2024/01/27 01:28:32;;;;;;;5.87;3.30;;;2.70;99.90;;;;;;5003982;28;20203;-56
2024/01/27 01:30:58;;;;;;;7.27;3.83;;;2.70;99.90;;;;;;5003742;28;20285;-54
2024/01/27 01:33:25;;;;;;;8.47;3.87;;;2.70;99.90;;;;;;5000606;28;20204;-55
2024/01/27 01:35:53;;;;;;;5.53;3.23;;;2.60;99.90;;;;;;5000126;28;20739;-54
2024/01/27 01:38:19;;;;;;;4.67;3.90;;;2.60;99.90;;;;;;5003079;28;20222;-54
2024/01/27 01:40:46;;;;;;;5.23;3.73;;;2.60;99.90;;;;;;5003814;28;20227;-55
2024/01/27 01:43:13;;;;;;;5.33;3.77;;;2.50;99.90;;;;;;5002296;28;20206;-57
2024/01/27 01:45:41;;;;;;;6.97;3.90;;;2.50;99.90;;;;;;5000428;28;20208;-54
2024/01/27 01:48:08;;;;;;;9.23;4.07;;;2.40;99.90;;;;;;5000682;28;20203;-54
2024/01/27 01:50:35;;;;;;;7.50;4.33;;;2.40;99.90;;;;;;5003855;28;20226;-54
2024/01/27 01:53:02;;;;;;;10.57;4.80;;;2.40;99.90;;;;;;5003945;28;20638;-54
2024/01/27 01:55:29;;;;;;;6.77;4.00;;;2.30;99.90;;;;;;4992706;28;20210;-54
2024/01/27 01:57:55;;;;;;;12.03;4.53;;;2.20;99.90;;;;;;5000160;28;20207;-55
2024/01/27 02:00:22;;;;;;;8.63;3.63;;;2.20;99.90;;;;;;5002498;28;20724;-54
2024/01/27 02:02:50;;;;;;;7.27;3.73;;;2.10;99.90;;;;;;5003504;28;20238;-54
2024/01/27 02:05:17;;;;;;;6.50;4.27;;;2.10;99.90;;;;;;5001154;28;20206;-54
2024/01/27 02:07:43;;;;;;;8.00;3.43;;;2.20;99.90;;;;;;4999582;28;20362;-55
2024/01/27 02:10:15;;;;;;;6.27;3.80;;;2.20;99.90;;;;;;5000203;28;20235;-54
2024/01/27 02:12:42;;;;;;;6.70;3.60;;;2.20;99.90;;;;;;5002996;28;20301;-56
2024/01/27 02:15:11;;;;;;;6.47;3.40;;;2.20;99.90;;;;;;5002939;28;20215;-54
2024/01/27 02:17:38;;;;;;;6.33;3.70;;;2.20;99.90;;;;;;5002535;28;20237;-54
2024/01/27 02:20:08;;;;;;;7.30;3.80;;;2.20;99.90;;;;;;5002119;28;20249;-54
2024/01/27 02:22:34;;;;;;;6.10;3.57;;;2.10;99.90;;;;;;4999946;28;20281;-55
2024/01/27 02:25:03;;;;;;;9.10;4.00;;;2.10;99.90;;;;;;4999975;28;20673;-55
2024/01/27 02:27:30;;;;;;;6.27;4.00;;;2.00;99.90;;;;;;5003084;28;20677;-55
2024/01/27 02:29:57;;;;;;;8.20;3.50;;;2.00;99.90;;;;;;5002988;28;20723;-55
2024/01/27 02:32:23;;;;;;;8.03;4.47;;;2.00;99.90;;;;;;5000521;28;20282;-54
2024/01/27 02:34:50;;;;;;;8.73;4.40;;;1.90;99.90;;;;;;4999878;28;20208;-55
2024/01/27 02:37:17;;;;;;;7.43;4.03;;;1.90;99.90;;;;;;5001375;28;20590;-54
2024/01/27 02:39:43;;;;;;;12.00;4.43;;;2.00;99.90;;;;;;5003092;28;20231;-54
2024/01/27 02:42:11;;;;;;;8.80;4.50;;;2.00;99.90;;;;;;4996307;28;20223;-56
2024/01/27 02:44:38;;;;;;;7.03;4.30;;;2.00;99.90;;;;;;5006295;28;20218;-54
2024/01/27 02:47:04;;;;;;;6.47;4.50;;;1.90;99.90;;;;;;5006477;28;20207;-55
2024/01/27 02:49:31;;;;;;;7.63;3.97;;;2.00;99.90;;;;;;5006691;28;20227;-54
2024/01/27 02:51:58;;;;;;;10.67;4.43;;;1.90;99.90;;;;;;4999172;28;20678;-55
2024/01/27 02:54:24;;;;;;;8.83;4.17;;;1.80;99.90;;;;;;5005864;28;20206;-56
2024/01/27 02:56:51;;;;;;;10.47;5.13;;;1.70;99.90;;;;;;5006157;28;20203;-54
2024/01/27 02:59:19;;;;;;;6.90;4.00;;;1.70;99.90;;;;;;5004150;28;20242;-54
2024/01/27 03:01:46;;;;;;;5.60;3.77;;;1.70;99.90;;;;;;5002838;28;20572;-54
2024/01/27 03:04:12;;;;;;;8.77;4.07;;;1.70;99.90;;;;;;5004022;28;20626;-56
2024/01/27 03:06:39;;;;;;;9.83;4.10;;;1.70;99.90;;;;;;5006365;28;20230;-54
2024/01/27 03:09:06;;;;;;;6.47;4.00;;;1.70;99.90;;;;;;5005792;28;20721;-55
2024/01/27 03:11:32;;;;;;;8.37;3.73;;;1.60;99.90;;;;;;5002827;28;20204;-54
2024/01/27 03:13:59;;;;;;;6.93;3.63;;;1.60;99.90;;;;;;5003024;28;20207;-55
2024/01/27 03:16:27;;;;;;;8.10;3.80;;;1.50;99.90;;;;;;5005844;28;20246;-54
2024/01/27 03:18:54;;;;;;;6.37;3.93;;;1.50;99.90;;;;;;5006134;28;20235;-54
2024/01/27 03:21:21;;;;;;;12.90;4.03;;;1.50;99.90;;;;;;5003608;28;20641;-56
2024/01/27 03:23:47;;;;;;;7.63;3.77;;;1.40;99.90;;;;;;5002507;28;20700;-54
2024/01/27 03:26:14;;;;;;;7.53;3.67;;;1.50;99.90;;;;;;5003476;28;20215;-54
2024/01/27 03:28:41;;;;;;;7.50;3.67;;;1.40;99.90;;;;;;5009627;28;20408;-54
2024/01/27 03:31:07;;;;;;;6.30;3.80;;;1.50;99.90;;;;;;5002925;28;20219;-55
2024/01/27 03:33:35;;;;;;;6.37;3.40;;;1.40;99.90;;;;;;5005713;28;20206;-54
2024/01/27 03:36:02;;;;;;;7.37;4.03;;;1.40;99.90;;;;;;5005814;28;20303;-55
2024/01/27 03:38:29;;;;;;;6.73;3.60;;;1.40;99.90;;;;;;5002268;28;20208;-55
2024/01/27 03:40:56;;;;;;;9.37;3.93;;;1.50;99.90;;;;;;5002443;28;20228;-55
2024/01/27 03:43:23;;;;;;;11.67;3.73;;;1.50;99.90;;;;;;5004790;28;20219;-55
2024/01/27 03:45:49;;;;;;;7.50;3.47;;;1.60;99.90;;;;;;5005583;28;20210;-56
2024/01/27 03:48:16;;;;;;;8.97;3.90;;;1.60;99.90;;;;;;5003962;28;20264;-55
2024/01/27 03:50:44;;;;;;;7.27;3.40;;;1.60;99.90;;;;;;5002384;28;20224;-54
2024/01/27 03:53:11;;;;;;;7.17;3.50;;;1.60;99.90;;;;;;5002391;28;20251;-54
2024/01/27 03:55:37;;;;;;;7.63;3.40;;;1.50;99.90;;;;;;5005363;28;20560;-55
2024/01/27 03:58:04;;;;;;;7.80;3.70;;;1.50;99.90;;;;;;5005285;28;20207;-54
2024/01/27 04:00:32;;;;;;;7.37;3.90;;;1.60;99.90;;;;;;5033910;23;20222;-65
2024/01/27 04:02:59;;;;;;;4.50;3.10;;;1.50;99.90;;;;;;5033038;28;20722;-65
2024/01/27 04:05:26;;;;;;;6.77;3.47;;;1.60;99.90;;;;;;5033173;28;20606;-65
2024/01/27 04:07:54;;;;;;;6.50;3.33;;;1.60;99.90;;;;;;5032736;28;20205;-63
2024/01/27 04:10:21;;;;;;;7.87;3.43;;;1.60;99.90;;;;;;5030928;28;20281;-65
2024/01/27 04:12:47;;;;;;;9.60;3.47;;;1.60;99.90;;;;;;5021514;28;20211;-63
2024/01/27 04:15:14;;;;;;;5.70;3.47;;;1.70;99.90;;;;;;5022202;28;20668;-63
2024/01/27 04:17:41;;;;;;;5.97;3.33;;;1.70;99.90;;;;;;5024442;28;20234;-65
2024/01/27 04:20:09;;;;;;;7.27;3.30;;;1.60;99.90;;;;;;5024016;28;20238;-63
2024/01/27 04:22:36;;;;;;;10.17;3.17;;;1.60;99.90;;;;;;5021236;28;20227;-63
2024/01/27 04:25:05;;;;;;;9.23;3.43;;;1.50;99.90;;;;;;5021247;28;20211;-63
2024/01/27 04:27:37;;;;;;;9.80;2.83;;;1.60;99.90;;;;;;5024151;28;20210;-62
2024/01/27 04:30:04;;;;;;;5.80;2.93;;;1.50;99.90;;;;;;5024514;28;20237;-63
2024/01/27 04:32:31;;;;;;;7.63;3.30;;;1.50;99.90;;;;;;5020879;28;20195;-63
2024/01/27 04:34:58;;;;;;;5.87;3.30;;;1.60;99.90;;;;;;5020864;28;20222;-63
2024/01/27 04:37:24;;;;;;;6.43;3.07;;;1.50;99.90;;;;;;5023121;28;20203;-63
2024/01/27 04:39:51;;;;;;;6.90;3.13;;;1.40;99.90;;;;;;5024687;28;20234;-63
2024/01/27 04:42:19;;;;;;;10.03;3.40;;;1.40;99.90;;;;;;5022482;28;20222;-63
2024/01/27 04:44:46;;;;;;;6.90;3.70;;;1.40;99.90;;;;;;5020728;28;20669;-64
2024/01/27 04:47:12;;;;;;;9.87;3.87;;;1.30;99.90;;;;;;5021106;28;20207;-63
2024/01/27 04:49:39;;;;;;;6.20;3.37;;;1.30;99.90;;;;;;5024482;28;20227;-63
2024/01/27 04:52:06;;;;;;;5.40;3.77;;;1.30;99.90;;;;;;5024151;28;20256;-63
2024/01/27 04:54:32;;;;;;;7.60;3.60;;;1.30;99.90;;;;;;5020654;28;20294;-62
2024/01/27 04:56:59;;;;;;;11.23;3.90;;;1.30;99.90;;;;;;5020376;28;20202;-63
2024/01/27 04:59:27;;;;;;;6.90;3.37;;;1.30;99.90;;;;;;5022929;28;20206;-63
2024/01/27 05:01:54;;;;;;;8.50;3.77;;;1.20;99.90;;;;;;5023750;28;20229;-63
2024/01/27 05:04:21;;;;;;;10.23;3.33;;;1.20;99.90;;;;;;5021916;28;20206;-63
2024/01/27 05:06:48;;;;;;;12.47;3.40;;;1.20;99.90;;;;;;5020446;28;20207;-63
2024/01/27 05:09:16;;;;;;;6.07;3.40;;;1.10;99.90;;;;;;5021300;28;20238;-63
2024/01/27 05:11:45;;;;;;;7.60;3.40;;;1.10;99.90;;;;;;5023741;28;20218;-63
2024/01/27 05:14:12;;;;;;;8.60;3.00;;;1.00;99.90;;;;;;5023132;28;20206;-63
2024/01/27 05:16:40;;;;;;;5.27;3.30;;;1.00;99.90;;;;;;5020072;28;20719;-63
2024/01/27 05:19:07;;;;;;;6.37;3.40;;;1.00;99.90;;;;;;5020658;28;20840;-63
2024/01/27 05:21:33;;;;;;;5.07;3.30;;;1.00;99.90;;;;;;5020252;28;20230;-63
2024/01/27 05:24:00;;;;;;;5.83;3.30;;;1.00;99.90;;;;;;5020359;28;20214;-63
2024/01/27 05:26:27;;;;;;;7.67;3.50;;;1.00;99.90;;;;;;5022385;28;20210;-63
2024/01/27 05:28:54;;;;;;;7.23;3.50;;;1.00;99.90;;;;;;5023625;28;20229;-63
2024/01/27 05:31:20;;;;;;;6.07;3.47;;;1.00;99.90;;;;;;5021618;28;20222;-63
2024/01/27 05:33:48;;;;;;;5.07;2.87;;;1.00;99.90;;;;;;5020292;28;20211;-63
2024/01/27 05:36:15;;;;;;;9.13;3.30;;;1.00;99.90;;;;;;5020715;28;20202;-63
2024/01/27 05:38:41;;;;;;;4.70;3.37;;;1.00;99.90;;;;;;5023399;28;20676;-63
2024/01/27 05:41:08;;;;;;;5.73;3.40;;;0.90;99.90;;;;;;5023587;28;20742;-63
2024/01/27 05:43:35;;;;;;;10.33;3.80;;;1.00;99.90;;;;;;5020009;28;20285;-64
2024/01/27 05:46:01;;;;;;;8.20;3.77;;;0.90;99.90;;;;;;5019782;28;20677;-63
2024/01/27 05:48:28;;;;;;;7.23;3.50;;;0.90;99.90;;;;;;5022559;28;20720;-63
2024/01/27 05:51:00;;;;;;;7.97;3.90;;;0.90;99.90;;;;;;5023230;28;20257;-63
2024/01/27 05:53:28;;;;;;;6.63;3.40;;;0.90;99.90;;;;;;5020824;28;20206;-64
2024/01/27 05:55:56;;;;;;;7.00;3.47;;;0.80;99.90;;;;;;5019758;28;20261;-63
2024/01/27 05:58:23;;;;;;;6.20;3.67;;;0.90;99.90;;;;;;5021755;28;20211;-64
2024/01/27 06:00:50;;;;;;;6.10;3.73;;;0.80;99.90;;;;;;5023170;28;20237;-63
2024/01/27 06:03:17;;;;;;;9.23;3.87;;;0.80;99.90;;;;;;5022086;28;20218;-63
2024/01/27 06:05:44;;;;;;;6.90;3.93;;;0.80;99.90;;;;;;5019847;28;20213;-63
2024/01/27 06:08:12;;;;;;;10.33;3.80;;;0.80;99.90;;;;;;5019466;28;20207;-63
2024/01/27 06:10:39;;;;;;;8.23;3.90;;;0.70;99.90;;;;;;5022950;28;20230;-63
2024/01/27 06:13:05;;;;;;;6.93;4.10;;;0.70;99.90;;;;;;5023033;28;20546;-64
2024/01/27 06:15:32;;;;;;;7.10;3.50;;;0.70;99.90;;;;;;5020134;28;20211;-62
2024/01/27 06:17:59;;;;;;;10.50;4.33;;;0.70;99.90;;;;;;5022471;28;20207;-63
2024/01/27 06:20:26;;;;;;;6.60;3.77;;;0.80;99.90;;;;;;5025437;28;20227;-64
2024/01/27 06:22:53;;;;;;;9.20;3.80;;;0.70;99.90;;;;;;5027043;28;20218;-62
2024/01/27 06:25:21;;;;;;;7.00;3.70;;;0.70;99.90;;;;;;5025255;28;20248;-63
2024/01/27 06:27:48;;;;;;;9.37;4.60;;;0.70;99.90;;;;;;5023192;28;20214;-63
2024/01/27 06:30:15;;;;;;;6.67;4.50;;;0.70;99.90;;;;;;5023717;28;20227;-63
2024/01/27 06:32:42;;;;;;;7.87;4.83;;;0.70;99.90;;;;;;5026671;28;20577;-64
2024/01/27 06:35:09;;;;;;;8.80;4.53;;;0.70;99.90;;;;;;5026588;28;20215;-64
2024/01/27 06:37:36;;;;;;;9.57;4.40;;;0.70;99.90;;;;;;5026346;28;20381;-64
2024/01/27 06:40:02;;;;;;;6.40;4.30;;;0.70;99.90;;;;;;5026252;28;20321;-64
2024/01/27 06:42:30;;;;;;;8.37;4.60;;;0.70;99.90;;;;;;5023645;28;20279;-64
2024/01/27 06:44:57;;;;;;;9.23;4.63;;;0.70;99.90;;;;;;5023103;28;20214;-65
2024/01/27 06:47:24;;;;;;;8.23;5.50;;;0.80;99.90;;;;;;5024397;28;20742;-65
2024/01/27 06:49:50;;;;;;;8.07;5.27;;;0.80;99.90;;;;;;5026248;28;20280;-64
2024/01/27 06:52:17;;;;;;;11.00;5.50;;;0.80;99.90;;;;;;5025228;28;20206;-64
2024/01/27 06:54:44;;;;;;;10.00;5.77;;;0.80;99.90;;;;;;5022761;28;20261;-63
2024/01/27 06:57:20;;;;;;;11.43;5.73;;;0.90;99.90;;;;;;5022549;28;20753;-64
2024/01/27 06:59:51;;;;;;;9.93;4.83;;;1.00;99.90;;;;;;5025976;28;20656;-64
2024/01/27 07:02:19;;;;;;;7.30;4.30;;;1.00;99.90;;;;;;5024919;28;20222;-66
2024/01/27 07:04:45;;;;;;;8.00;3.93;;;1.10;99.90;;;;;;5022563;28;20622;-63
2024/01/27 07:07:12;;;;;;;9.27;4.40;;;1.10;99.90;;;;;;5022383;28;20253;-64
2024/01/27 07:09:39;;;;;;;9.10;4.23;;;1.10;99.90;;;;;;5025921;28;20234;-66
2024/01/27 07:12:06;;;;;;;8.33;4.30;;;1.20;99.90;;;;;;5026065;28;20280;-64
2024/01/27 07:14:33;;;;;;;8.07;5.20;;;1.20;99.90;;;;;;5022984;28;20298;-66
2024/01/27 07:17:01;;;;;;;9.37;5.00;;;1.30;99.90;;;;;;5022148;28;20711;-64
2024/01/27 07:19:28;;;;;;;9.83;4.93;;;1.30;99.90;;;;;;5024245;28;20207;-64
2024/01/27 07:21:54;;;;;;;6.77;4.90;;;1.30;99.90;;;;;;5025918;28;20222;-66
2024/01/27 07:24:21;;;;;;;8.23;5.17;;;1.30;99.90;;;;;;5024297;28;20206;-63
2024/01/27 07:26:48;;;;;;;8.57;4.70;;;1.30;99.90;;;;;;5022166;28;20206;-63
2024/01/27 07:29:14;;;;;;;8.63;5.40;;;1.20;99.90;;;;;;5022107;28;20203;-63
2024/01/27 07:31:41;;;;;;;9.10;4.47;;;1.20;99.90;;;;;;5025508;28;20222;-64
2024/01/27 07:34:09;;;;;;;8.07;4.90;;;1.20;99.90;;;;;;5025356;28;20684;-62
2024/01/27 07:36:36;;;;;;;7.40;4.97;;;1.30;99.90;;;;;;5022123;28;20257;-64
2024/01/27 07:39:04;;;;;;;9.33;5.70;;;1.30;99.90;;;;;;5022213;28;20278;-64
2024/01/27 07:41:31;;;;;;;7.27;5.10;;;1.30;99.90;;;;;;5024325;28;20289;-64
2024/01/27 07:43:58;;;;;;;8.77;4.87;;;1.40;99.90;;;;;;5025510;28;20541;-64
2024/01/27 07:46:24;;;;;;;10.43;4.80;;;1.40;99.90;;;;;;5022960;28;20206;-64
2024/01/27 07:48:51;;;;;;;15.30;7.07;;;1.50;99.90;;;;;;5021426;28;20215;-63
2024/01/27 07:51:19;;;;;;;9.60;5.10;;;1.50;99.90;;;;;;5022225;28;20238;-64
2024/01/27 07:53:45;;;;;;;7.50;4.33;;;1.60;99.90;;;;;;5024872;28;20205;-64
2024/01/27 07:56:12;;;;;;;6.63;4.13;;;1.60;99.90;;;;;;5024628;28;20203;-65
2024/01/27 07:58:39;;;;;;;8.83;4.60;;;1.60;99.90;;;;;;5021320;28;20210;-65
2024/01/27 08:01:06;;;;;;;11.43;4.60;;;1.70;99.90;;;;;;5021210;28;20235;-65
2024/01/27 08:03:32;;;;;;;7.07;4.70;;;1.70;99.90;;;;;;5023775;28;20231;-63
2024/01/27 08:05:59;;;;;;;8.30;4.97;;;1.70;99.90;;;;;;5024468;28;20284;-64
2024/01/27 08:08:27;;;;;;;11.67;5.77;;;1.70;99.90;;;;;;5016316;28;20207;-64
2024/01/27 08:10:54;;;;;;;12.63;6.13;;;1.70;99.90;;;;;;5024529;28;20288;-65
2024/01/27 08:13:20;;;;;;;11.60;5.60;;;1.80;99.90;;;;;;5023392;28;20204;-64
2024/01/27 08:15:47;;;;;;;17.53;6.33;;;1.80;99.90;;;;;;5020793;28;20520;-63
2024/01/27 08:18:14;;;;;;;10.13;6.37;;;1.90;99.90;;;;;;5020500;28;20261;-63
2024/01/27 08:20:41;;;;;;;7.97;5.43;;;2.00;99.90;;;;;;5024359;28;20222;-64
2024/01/27 08:23:08;;;;;;;10.57;5.87;;;2.20;99.90;;;;;;5024103;28;20218;-63
2024/01/27 08:25:36;;;;;;;12.23;5.73;;;2.30;99.90;;;;;;5021369;28;20619;-66
2024/01/27 08:28:03;;;;;;;11.93;5.90;;;2.30;99.90;;;;;;5020648;28;20202;-64
2024/01/27 08:30:30;;;;;;;12.90;6.27;;;2.40;99.90;;;;;;5022585;28;20234;-64
2024/01/27 08:32:56;;;;;;;19.63;6.40;;;2.50;99.90;;;;;;5024257;28;20500;-64
2024/01/27 08:35:23;;;;;;;23.23;6.93;;;2.60;99.90;;;;;;5022719;28;20696;-63
2024/01/27 08:37:50;;;;;;;15.00;7.33;;;2.70;99.90;;;;;;5020302;28;20298;-66
2024/01/27 08:40:17;;;;;;;21.47;7.17;;;2.80;99.90;;;;;;5020155;28;20223;-65
2024/01/27 08:42:45;;;;;;;18.37;7.20;;;2.90;99.90;;;;;;5023922;28;20242;-63
2024/01/27 08:45:12;;;;;;;23.33;6.73;;;2.90;99.90;;;;;;5023765;28;20264;-64
2024/01/27 08:47:38;;;;;;;13.83;6.33;;;2.90;99.90;;;;;;5020168;28;20210;-65
2024/01/27 08:50:06;;;;;;;9.23;6.40;;;3.00;99.90;;;;;;5020358;28;20218;-64
2024/01/27 08:52:33;;;;;;;10.90;6.23;;;3.10;99.90;;;;;;5022662;28;20207;-65
2024/01/27 08:55:00;;;;;;;14.03;6.47;;;3.30;99.90;;;;;;5023554;28;20714;-66
2024/01/27 08:57:26;;;;;;;17.87;6.63;;;3.30;99.90;;;;;;5021599;28;20237;-64
2024/01/27 08:59:54;;;;;;;11.20;6.33;;;3.40;99.90;;;;;;5020061;28;20728;-64
2024/01/27 09:02:21;;;;;;;11.70;6.10;;;3.50;99.90;;;;;;5020940;28;20518;-64
2024/01/27 09:04:48;;;;;;;8.17;5.53;;;3.50;99.90;;;;;;5023221;28;20345;-65
2024/01/27 09:07:14;;;;;;;8.80;6.17;;;3.60;99.90;;;;;;5023296;28;20202;-64
2024/01/27 09:09:41;;;;;;;9.17;5.57;;;3.70;99.90;;;;;;5020106;28;20639;-64
2024/01/27 09:12:08;;;;;;;14.20;6.00;;;3.80;99.90;;;;;;5019982;28;20392;-63
2024/01/27 09:14:35;;;;;;;20.53;6.60;;;3.90;99.90;;;;;;5022673;28;20247;-64
2024/01/27 09:17:03;;;;;;;11.20;5.53;;;4.00;99.90;;;;;;5012357;28;20211;-62
2024/01/27 09:19:30;;;;;;;11.73;5.70;;;4.10;99.90;;;;;;5022104;28;20206;-67
2024/01/27 09:21:56;;;;;;;14.40;5.63;;;4.20;99.90;;;;;;5022699;28;20221;-61
2024/01/27 09:24:23;;;;;;;11.30;5.20;;;4.40;99.90;;;;;;5021654;28;20218;-63
2024/01/27 09:26:51;;;;;;;9.47;5.60;;;4.50;99.90;;;;;;5018998;28;20720;-61
2024/01/27 09:29:19;;;;;;;12.33;7.47;;;4.70;99.90;;;;;;5019851;28;20203;-61
2024/01/27 09:31:46;;;;;;;14.30;5.90;;;4.70;99.90;;;;;;5023079;28;20301;-62
2024/01/27 09:34:14;;;;;;;11.57;5.80;;;4.90;99.90;;;;;;5023060;28;20620;-61
2024/01/27 09:36:40;;;;;;;6.77;4.87;;;5.00;99.90;;;;;;5019199;28;20699;-61
2024/01/27 09:39:08;;;;;;;13.00;5.03;;;5.10;99.90;;;;;;5019325;28;20211;-61
2024/01/27 09:41:35;;;;;;;18.40;4.77;;;5.30;99.90;;;;;;5022121;28;20237;-61
2024/01/27 09:44:03;;;;;;;11.23;5.30;;;5.40;99.90;;;;;;5022907;28;20272;-63
2024/01/27 09:46:32;;;;;;;9.00;4.90;;;5.30;99.90;;;;;;5020790;28;20256;-63
2024/01/27 09:48:59;;;;;;;11.80;5.70;;;5.40;99.90;;;;;;5020609;28;20203;-61
2024/01/27 09:51:27;;;;;;;13.40;4.73;;;5.50;99.90;;;;;;5025178;28;20257;-61
2024/01/27 09:53:55;;;;;;;9.90;4.70;;;5.70;99.90;;;;;;5028113;28;20664;-63
2024/01/27 09:56:23;;;;;;;5.80;4.07;;;5.90;99.90;;;;;;5026504;28;20198;-61
2024/01/27 09:58:55;;;;;;;7.90;4.33;;;6.00;99.90;;;;;;5023714;28;20206;-62
2024/01/27 10:01:24;;;;;;;11.37;5.27;;;6.10;99.90;;;;;;5055019;23;20222;-60
2024/01/27 10:03:51;;;;;;;12.57;6.17;;;6.00;99.90;;;;;;5034802;28;20242;-59
2024/01/27 10:06:18;;;;;;;6.07;4.10;;;6.10;99.90;;;;;;5034600;28;20206;-60
2024/01/27 10:08:53;;;;;;;7.93;4.40;;;6.20;99.90;;;;;;5035190;28;20237;-60
2024/01/27 10:11:22;;;;;;;9.40;5.00;;;6.40;99.90;;;;;;5026684;28;20226;-59
2024/01/27 10:13:54;;;;;;;8.87;4.37;;;6.50;99.90;;;;;;5026533;28;20285;-59
2024/01/27 10:16:21;;;;;;;7.00;4.57;;;6.40;99.90;;;;;;5025647;28;20206;-59
2024/01/27 10:18:48;;;;;;;10.43;5.10;;;6.40;99.90;;;;;;5023066;28;20207;-58
2024/01/27 10:21:15;;;;;;;11.13;5.30;;;6.50;99.90;;;;;;5023485;28;20219;-59
2024/01/27 10:23:42;;;;;;;11.53;5.30;;;6.60;99.90;;;;;;5026571;28;20218;-63
2024/01/27 10:26:11;;;;;;;9.47;4.30;;;6.50;99.90;;;;;;5026525;28;20209;-63
2024/01/27 10:28:38;;;;;;;13.37;5.83;;;6.30;99.90;;;;;;5023245;28;20624;-58
2024/01/27 10:31:14;;;;;;;9.77;4.80;;;6.30;99.90;;;;;;5023155;28;20223;-60
2024/01/27 10:33:51;;;;;;;7.27;4.03;;;6.30;99.90;;;;;;5026447;28;20207;-64
2024/01/27 10:36:18;;;;;;;10.17;4.77;;;6.30;99.90;;;;;;5026659;28;20198;-63
2024/01/27 10:38:45;;;;;;;7.73;4.90;;;6.50;99.90;;;;;;5023833;28;20203;-65
2024/01/27 10:41:20;;;;;;;13.30;5.50;;;6.60;99.90;;;;;;5021917;28;20218;-64
2024/01/27 10:43:50;;;;;;;8.40;5.10;;;6.70;99.90;;;;;;5015709;28;20986;-63
2024/01/27 10:46:21;;;;;;;9.57;4.90;;;6.80;99.90;;;;;;5023144;28;20239;-61
2024/01/27 10:48:51;;;;;;;12.27;5.40;;;7.00;99.90;;;;;;5015661;28;20242;-62
2024/01/27 10:51:23;;;;;;;9.67;4.70;;;7.30;99.90;;;;;;5022516;28;20305;-62
2024/01/27 10:53:52;;;;;;;7.47;4.33;;;7.60;99.90;;;;;;5015814;28;20204;-61
2024/01/27 10:56:22;;;;;;;8.43;4.30;;;7.70;99.90;;;;;;5022540;28;20845;-63
2024/01/27 10:58:50;;;;;;;9.97;4.60;;;7.70;99.90;;;;;;5026668;28;20203;-58
2024/01/27 11:01:22;;;;;;;8.10;4.43;;;7.70;99.90;;;;;;5025846;28;20229;-57
2024/01/27 11:03:50;;;;;;;15.10;4.73;;;7.90;99.90;;;;;;5013909;28;20234;-58
2024/01/27 11:06:21;;;;;;;7.53;4.30;;;8.10;99.90;;;;;;5023077;28;20249;-62
2024/01/27 11:08:50;;;;;;;9.23;3.87;;;8.30;99.90;;;;;;5014815;28;20207;-61
2024/01/27 11:11:16;;;;;;;7.53;3.33;;;8.50;99.90;;;;;;5022662;28;20219;-61
2024/01/27 11:13:48;;;;;;;9.63;3.60;;;8.60;99.90;;;;;;5025549;28;20198;-62
2024/01/27 11:16:18;;;;;;;11.03;3.83;;;8.60;99.90;;;;;;5025134;28;20234;-63
2024/01/27 11:18:45;;;;;;;7.63;2.80;;;8.50;99.90;;;;;;5022186;28;20748;-62
2024/01/27 11:21:15;;;;;;;7.83;3.10;;;8.50;99.90;;;;;;5022167;28;20848;-64
2024/01/27 11:23:43;;;;;;;13.33;3.37;;;8.50;99.90;;;;;;5025453;28;20218;-61
2024/01/27 11:26:14;;;;;;;11.30;3.10;;;8.60;99.90;;;;;;5025197;28;20202;-64
2024/01/27 11:28:41;;;;;;;7.90;3.33;;;8.70;99.90;;;;;;5022179;28;20203;-63
2024/01/27 11:31:09;;;;;;;7.37;3.57;;;8.70;99.90;;;;;;5022024;28;20226;-64
2024/01/27 11:33:43;;;;;;;8.50;3.57;;;8.80;99.90;;;;;;5023870;28;20199;-61
2024/01/27 11:36:18;;;;;;;8.03;3.40;;;8.90;99.90;;;;;;5025560;28;20289;-61
2024/01/27 11:38:45;;;;;;;6.00;3.00;;;9.10;99.90;;;;;;5025483;28;20620;-60
2024/01/27 11:41:11;;;;;;;7.03;3.53;;;9.20;99.90;;;;;;5024968;28;20250;-62
2024/01/27 11:43:38;;;;;;;10.70;3.40;;;9.30;99.90;;;;;;5022618;28;20218;-59
2024/01/27 11:46:05;;;;;;;8.90;2.80;;;9.50;99.90;;;;;;5021578;28;20594;-60
2024/01/27 11:48:33;;;;;;;7.77;2.60;;;9.60;99.90;;;;;;5023480;28;20285;-62
2024/01/27 11:51:05;;;;;;;11.00;2.77;;;9.70;99.90;;;;;;5025157;28;20218;-62
2024/01/27 11:53:32;;;;;;;8.07;2.53;;;9.80;99.90;;;;;;5015549;28;20239;-63
2024/01/27 11:55:59;;;;;;;8.10;2.80;;;9.80;99.90;;;;;;5025052;28;20209;-64
2024/01/27 11:58:25;;;;;;;6.87;2.60;;;9.70;99.90;;;;;;5024057;28;20257;-59
2024/01/27 12:00:53;;;;;;;6.97;2.43;;;9.60;99.90;;;;;;5021622;28;20716;-59
2024/01/27 12:03:20;;;;;;;8.53;2.37;;;9.70;99.90;;;;;;5021573;28;20241;-59
2024/01/27 12:05:48;;;;;;;5.20;2.27;;;9.80;99.90;;;;;;5025131;28;20229;-60
2024/01/27 12:08:15;;;;;;;7.57;2.20;;;9.90;99.90;;;;;;5024586;28;20205;-59
2024/01/27 12:10:41;;;;;;;7.27;2.50;;;10.10;99.90;;;;;;5021633;28;20219;-58
2024/01/27 12:13:08;;;;;;;8.53;2.30;;;10.10;99.90;;;;;;5021401;28;20206;-59
2024/01/27 12:15:35;;;;;;;7.47;2.10;;;10.10;99.90;;;;;;5023110;28;20706;-59
2024/01/27 12:18:02;;;;;;;6.40;2.20;;;10.10;99.90;;;;;;5024524;28;20209;-59
2024/01/27 12:20:29;;;;;;;5.20;2.23;;;10.10;99.90;;;;;;5023203;28;20850;-59
2024/01/27 12:23:04;;;;;;;17.33;3.27;;;10.10;99.90;;;;;;5021558;28;20199;-58
2024/01/27 12:25:31;;;;;;;6.43;2.57;;;10.10;99.90;;;;;;5022815;28;20490;-59
2024/01/27 12:28:00;;;;;;;6.77;2.10;;;10.10;99.90;;;;;;5024797;28;20221;-58
2024/01/27 12:30:27;;;;;;;8.97;4.10;;;10.20;99.90;;;;;;5023618;28;20222;-59
2024/01/27 12:32:54;;;;;;;7.50;2.17;;;10.30;99.90;;;;;;5021205;28;20215;-58
2024/01/27 12:35:21;;;;;;;4.27;1.80;;;10.50;99.90;;;;;;5021310;28;20210;-58
2024/01/27 12:37:48;;;;;;;6.63;1.70;;;10.60;99.90;;;;;;5024273;28;20285;-58
2024/01/27 12:40:22;;;;;;;4.97;1.50;;;10.60;99.90;;;;;;5024253;28;20230;-58
2024/01/27 12:42:49;;;;;;;10.23;2.20;;;10.50;99.90;;;;;;5013214;28;20282;-58
2024/01/27 12:45:16;;;;;;;4.20;1.53;;;10.50;99.90;;;;;;5020979;28;20215;-61
2024/01/27 12:47:42;;;;;;;5.50;1.70;;;10.60;99.90;;;;;;5023579;28;20672;-57
2024/01/27 12:50:10;;;;;;;8.77;2.30;;;10.50;99.90;;;;;;5024859;28;20296;-58
2024/01/27 12:52:37;;;;;;;11.73;2.67;;;10.60;99.90;;;;;;5022471;28;20201;-58